createdAt,value
2022-07-28T00:00:16.103Z,98276.25
2022-07-28T00:02:45.998Z,98266.97
2022-07-28T00:05:15.817Z,98270.44
2022-07-28T00:07:48.422Z,98258.84
2022-07-28T00:10:18.237Z,98264.19
2022-07-28T00:12:48.015Z,98260.03
2022-07-28T00:15:17.757Z,98256.50
2022-07-28T00:17:47.524Z,98256.72
2022-07-28T00:20:17.301Z,98259.00
2022-07-28T00:22:49.817Z,98259.16
2022-07-28T00:25:19.567Z,98255.72
2022-07-28T00:27:49.293Z,98260.16
2022-07-28T00:30:19.358Z,98249.59
2022-07-28T00:32:49.431Z,98241.53
2022-07-28T00:35:30.371Z,98244.59
2022-07-28T00:38:03.958Z,98234.44
2022-07-28T00:40:45.921Z,98240.91
2022-07-28T00:43:15.616Z,98239.63
2022-07-28T00:45:45.558Z,98237.88
2022-07-28T00:48:15.275Z,98235.47
2022-07-28T00:50:46.501Z,98230.72
2022-07-28T00:53:19.984Z,98240.16
2022-07-28T00:56:03.388Z,98238.75
2022-07-28T00:58:37.413Z,98235.44
2022-07-28T01:01:07.862Z,98234.06
2022-07-28T01:03:39.250Z,98233.38
2022-07-28T01:06:16.572Z,98237.91
2022-07-28T01:08:59.692Z,98230.47
2022-07-28T01:11:41.578Z,98238.69
2022-07-28T01:14:18.455Z,98229.25
2022-07-28T01:16:53.072Z,98230.66
2022-07-28T01:19:38.640Z,98236.00
2022-07-28T01:22:12.689Z,98235.50
2022-07-28T01:24:54.071Z,98230.91
2022-07-28T01:27:39.793Z,98226.22
2022-07-28T01:30:13.393Z,98232.31
2022-07-28T01:32:49.326Z,98225.56
2022-07-28T01:35:23.829Z,98230.22
2022-07-28T01:38:00.529Z,98215.59
2022-07-28T01:40:36.259Z,98219.66
2022-07-28T01:43:13.395Z,98220.13
2022-07-28T01:45:44.302Z,98227.44
2022-07-28T01:48:19.922Z,98221.38
2022-07-28T01:50:51.695Z,98214.75
2022-07-28T01:53:24.229Z,98208.56
2022-07-28T01:55:55.975Z,98213.06
2022-07-28T01:58:27.313Z,98203.91
2022-07-28T02:00:59.058Z,98206.00
2022-07-28T02:03:33.186Z,98199.75
2022-07-28T02:06:04.735Z,98198.38
2022-07-28T02:08:36.088Z,98200.84
2022-07-28T02:11:18.326Z,98203.41
2022-07-28T02:13:51.237Z,98199.63
2022-07-28T02:16:25.269Z,98195.47
2022-07-28T02:19:01.628Z,98198.28
2022-07-28T02:21:36.259Z,98193.38
2022-07-28T02:24:08.466Z,98182.38
2022-07-28T02:26:42.489Z,98188.66
2022-07-28T02:29:40.560Z,98192.19
2022-07-28T02:32:27.018Z,98181.34
2022-07-28T02:35:06.065Z,98180.28
2022-07-28T02:37:41.090Z,98183.31
2022-07-28T02:40:19.318Z,98178.78
2022-07-28T02:42:51.839Z,98181.38
2022-07-28T02:45:26.525Z,98183.50
2022-07-28T02:48:01.505Z,98175.13
2022-07-28T02:50:33.830Z,98182.22
2022-07-28T02:53:15.247Z,98170.81
2022-07-28T02:55:47.820Z,98173.00
2022-07-28T02:58:18.618Z,98184.56
2022-07-28T03:00:48.870Z,98179.88
2022-07-28T03:03:20.067Z,98181.44
2022-07-28T03:05:53.223Z,98184.44
2022-07-28T03:08:23.205Z,98187.31
2022-07-28T03:10:52.917Z,98188.91
2022-07-28T03:13:22.740Z,98178.38
2022-07-28T03:15:52.512Z,98179.31
2022-07-28T03:18:22.223Z,98170.25
2022-07-28T03:20:54.592Z,98179.94
2022-07-28T03:23:29.711Z,98184.91
2022-07-28T03:26:04.713Z,98175.56
2022-07-28T03:28:36.188Z,98183.44
2022-07-28T03:31:10.210Z,98187.44
2022-07-28T03:33:40.345Z,98182.59
2022-07-28T03:36:21.821Z,98188.50
2022-07-28T03:38:57.138Z,98177.59
2022-07-28T03:41:29.514Z,98178.06
2022-07-28T03:44:00.133Z,98187.69
2022-07-28T03:46:30.082Z,98181.44
2022-07-28T03:49:00.133Z,98187.13
2022-07-28T03:51:32.717Z,98181.03
2022-07-28T03:54:02.449Z,98184.66
2022-07-28T03:56:32.184Z,98185.03
2022-07-28T03:59:01.922Z,98193.63
2022-07-28T04:01:31.841Z,98189.78
2022-07-28T04:04:01.668Z,98192.50
2022-07-28T04:06:34.039Z,98187.03
2022-07-28T04:09:03.789Z,98185.72
2022-07-28T04:11:33.595Z,98197.00
2022-07-28T04:14:03.318Z,98196.19
2022-07-28T04:16:33.118Z,98201.78
2022-07-28T04:19:03.039Z,98198.47
2022-07-28T04:21:35.891Z,98203.31
2022-07-28T04:24:05.632Z,98204.06
2022-07-28T04:26:35.385Z,98211.78
2022-07-28T04:29:05.093Z,98204.22
2022-07-28T04:31:34.979Z,98209.06
2022-07-28T04:34:04.642Z,98203.50
2022-07-28T04:36:42.139Z,98196.19
2022-07-28T04:39:12.325Z,98206.06
2022-07-28T04:41:42.516Z,98207.16
2022-07-28T04:44:13.788Z,98195.47
2022-07-28T04:46:44.746Z,98193.03
2022-07-28T04:49:14.635Z,98197.22
2022-07-28T04:51:50.744Z,98206.44
2022-07-28T04:54:26.366Z,98202.13
2022-07-28T04:56:56.496Z,98192.72
2022-07-28T04:59:27.013Z,98198.06
2022-07-28T05:01:58.556Z,98200.00
2022-07-28T05:04:28.373Z,98201.91
2022-07-28T05:07:00.857Z,98201.81
2022-07-28T05:09:37.736Z,98200.63
2022-07-28T05:12:08.046Z,98196.97
2022-07-28T05:14:37.842Z,98200.28
2022-07-28T05:17:07.554Z,98206.53
2022-07-28T05:19:39.512Z,98206.66
2022-07-28T05:22:11.907Z,98206.19
2022-07-28T05:24:41.669Z,98209.47
2022-07-28T05:27:12.299Z,98209.28
2022-07-28T05:29:47.069Z,98205.63
2022-07-28T05:32:18.241Z,98209.03
2022-07-28T05:34:48.264Z,98199.53
2022-07-28T05:37:20.599Z,98206.13
2022-07-28T05:39:50.294Z,98206.88
2022-07-28T05:42:19.973Z,98215.66
2022-07-28T05:44:49.667Z,98208.47
2022-07-28T05:47:19.419Z,98208.72
2022-07-28T05:49:49.162Z,98203.31
2022-07-28T05:52:21.714Z,98197.94
2022-07-28T05:54:51.464Z,98203.50
2022-07-28T05:57:21.238Z,98201.81
2022-07-28T05:59:50.944Z,98202.03
2022-07-28T06:02:21.012Z,98204.16
2022-07-28T06:04:50.700Z,98202.00
2022-07-28T06:07:22.999Z,98201.19
2022-07-28T06:10:13.313Z,98211.47
2022-07-28T06:12:45.021Z,98209.28
2022-07-28T06:15:16.901Z,98209.44
2022-07-28T06:17:46.751Z,98208.44
2022-07-28T06:20:17.079Z,98207.03
2022-07-28T06:22:51.381Z,98208.38
2022-07-28T06:25:22.895Z,98207.13
2022-07-28T06:27:58.648Z,98210.94
2022-07-28T06:30:29.580Z,98207.56
2022-07-28T06:33:00.156Z,98206.34
2022-07-28T06:35:30.225Z,98204.91
2022-07-28T06:38:15.325Z,98202.69
2022-07-28T06:40:46.233Z,98209.34
2022-07-28T06:43:16.112Z,98203.03
2022-07-28T06:45:45.986Z,98204.69
2022-07-28T06:48:16.349Z,98195.03
2022-07-28T06:50:46.156Z,98209.22
2022-07-28T06:53:18.522Z,98203.72
2022-07-28T06:55:50.136Z,98198.81
2022-07-28T06:58:20.219Z,98200.53
2022-07-28T07:00:50.040Z,98202.06
2022-07-28T07:03:19.732Z,98194.78
2022-07-28T07:05:51.638Z,98199.50
2022-07-28T07:08:25.500Z,98191.69
2022-07-28T07:10:57.040Z,98192.34
2022-07-28T07:13:27.040Z,98186.31
2022-07-28T07:15:56.796Z,98184.88
2022-07-28T07:18:26.510Z,98184.06
2022-07-28T07:20:56.603Z,98177.25
2022-07-28T07:23:28.974Z,98173.22
2022-07-28T07:25:59.025Z,98175.78
2022-07-28T07:28:28.820Z,98173.19
2022-07-28T07:30:58.635Z,98168.53
2022-07-28T07:33:28.396Z,98167.56
2022-07-28T07:35:58.051Z,98169.16
2022-07-28T07:38:30.501Z,98172.22
2022-07-28T07:41:00.835Z,98170.72
2022-07-28T07:43:30.840Z,98170.41
2022-07-28T07:46:00.602Z,98169.69
2022-07-28T07:48:30.364Z,98168.63
2022-07-28T07:51:00.093Z,98170.81
2022-07-28T07:53:32.538Z,98169.63
2022-07-28T07:56:02.360Z,98174.16
2022-07-28T07:58:32.262Z,98171.09
2022-07-28T08:01:02.075Z,98171.69
2022-07-28T08:03:31.747Z,98168.44
2022-07-28T08:06:02.661Z,98178.41
2022-07-28T08:08:41.671Z,98170.66
2022-07-28T08:11:16.126Z,98178.22
2022-07-28T08:13:45.842Z,98173.56
2022-07-28T08:16:15.649Z,98165.13
2022-07-28T08:18:45.545Z,98169.06
2022-07-28T08:21:16.410Z,98164.06
2022-07-28T08:23:48.737Z,98166.44
2022-07-28T08:26:18.423Z,98158.72
2022-07-28T08:28:48.170Z,98165.47
2022-07-28T08:31:21.964Z,98160.84
2022-07-28T08:33:54.233Z,98165.78
2022-07-28T08:36:24.914Z,98157.19
2022-07-28T08:38:57.272Z,98156.06
2022-07-28T08:41:35.215Z,98155.59
2022-07-28T08:44:06.163Z,98158.03
2022-07-28T08:46:38.909Z,98155.59
2022-07-28T08:49:11.190Z,98155.22
2022-07-28T08:51:45.782Z,98159.59
2022-07-28T08:54:23.174Z,98153.53
2022-07-28T08:56:53.298Z,98154.31
2022-07-28T08:59:24.085Z,98147.84
2022-07-28T09:01:57.795Z,98141.91
2022-07-28T09:04:28.841Z,98138.03
2022-07-28T09:06:59.210Z,98136.91
2022-07-28T09:09:32.112Z,98132.06
2022-07-28T09:12:01.850Z,98130.72
2022-07-28T09:14:31.609Z,98128.94
2022-07-28T09:17:03.268Z,98134.47
2022-07-28T09:19:37.705Z,98132.16
2022-07-28T09:22:09.029Z,98132.53
2022-07-28T09:24:44.602Z,98136.41
2022-07-28T09:27:16.267Z,98132.63
2022-07-28T09:29:49.857Z,98129.19
2022-07-28T09:32:22.271Z,98127.44
2022-07-28T09:34:53.862Z,98130.53
2022-07-28T09:37:27.771Z,98119.06
2022-07-28T09:40:12.687Z,98125.81
2022-07-28T09:42:50.347Z,98124.00
2022-07-28T09:45:23.532Z,98121.91
2022-07-28T09:48:12.324Z,98110.25
2022-07-28T09:50:42.980Z,98108.34
2022-07-28T09:53:30.590Z,98106.44
2022-07-28T09:56:05.719Z,98109.09
2022-07-28T09:58:35.808Z,98105.31
2022-07-28T10:01:08.099Z,98110.66
2022-07-28T10:03:38.706Z,98102.13
2022-07-28T10:06:11.711Z,98105.31
2022-07-28T10:08:47.481Z,98093.06
2022-07-28T10:11:21.781Z,98092.06
2022-07-28T10:14:05.539Z,98090.66
2022-07-28T10:16:37.235Z,98085.97
2022-07-28T10:19:08.753Z,98085.97
2022-07-28T10:21:44.385Z,98088.25
2022-07-28T10:24:23.589Z,98086.44
2022-07-28T10:26:59.414Z,98076.50
2022-07-28T10:29:31.899Z,98076.09
2022-07-28T10:32:06.107Z,98078.03
2022-07-28T10:34:39.090Z,98069.63
2022-07-28T10:37:16.565Z,98069.25
2022-07-28T10:39:52.528Z,98068.72
2022-07-28T10:42:25.096Z,98064.00
2022-07-28T10:44:57.515Z,98072.28
2022-07-28T10:47:35.927Z,98075.09
2022-07-28T10:50:08.778Z,98066.28
2022-07-28T10:52:49.842Z,98061.56
2022-07-28T10:55:32.062Z,98056.88
2022-07-28T10:58:12.379Z,98061.31
2022-07-28T11:01:05.221Z,98058.25
2022-07-28T11:03:40.764Z,98073.88
2022-07-28T11:06:40.269Z,98059.28
2022-07-28T11:09:26.208Z,98058.63
2022-07-28T11:11:58.132Z,98048.16
2022-07-28T11:14:37.069Z,98059.16
2022-07-28T11:17:33.597Z,98048.88
2022-07-28T11:22:55.504Z,98048.06
2022-07-28T11:25:25.538Z,98044.53
2022-07-28T11:28:08.278Z,98048.56
2022-07-28T11:30:58.390Z,98050.91
2022-07-28T11:33:48.236Z,98053.09
2022-07-28T11:36:18.041Z,98036.47
2022-07-28T11:39:27.290Z,98032.19
2022-07-28T11:41:57.180Z,98039.13
2022-07-28T11:44:28.649Z,98046.97
2022-07-28T11:47:18.896Z,98030.94
2022-07-28T11:49:49.808Z,98040.91
2022-07-28T11:52:22.639Z,98043.53
2022-07-28T11:54:54.820Z,98040.69
2022-07-28T11:57:26.921Z,98043.38
2022-07-28T12:00:01.699Z,98036.72
2022-07-28T12:02:36.164Z,98022.44
2022-07-28T12:05:10.914Z,98027.56
2022-07-28T12:07:44.596Z,98021.28
2022-07-28T12:10:53.464Z,98027.00
2022-07-28T12:13:28.997Z,98026.00
2022-07-28T12:15:58.893Z,98031.59
2022-07-28T12:18:31.754Z,98009.59
2022-07-28T12:21:05.088Z,98021.56
2022-07-28T12:23:44.186Z,98016.25
2022-07-28T12:26:31.656Z,98003.25
2022-07-28T12:29:02.119Z,98011.22
2022-07-28T12:31:38.201Z,98007.44
2022-07-28T12:34:12.729Z,98010.41
2022-07-28T12:36:42.845Z,98007.41
2022-07-28T12:39:13.428Z,98000.22
2022-07-28T12:41:43.262Z,98008.16
2022-07-28T12:44:13.703Z,98010.22
2022-07-28T12:46:49.037Z,98004.31
2022-07-28T12:49:27.531Z,98008.94
2022-07-28T12:51:59.308Z,98001.25
2022-07-28T12:54:39.698Z,98002.50
2022-07-28T12:57:09.462Z,97999.16
2022-07-28T12:59:41.254Z,98005.47
2022-07-28T13:02:11.082Z,97997.03
2022-07-28T13:04:47.179Z,98004.47
2022-07-28T13:07:26.304Z,97993.19
2022-07-28T13:10:05.258Z,97996.03
2022-07-28T13:12:35.368Z,97987.84
2022-07-28T13:15:10.558Z,97992.22
2022-07-28T13:17:52.651Z,97997.53
2022-07-28T13:20:25.107Z,97993.94
2022-07-28T13:22:55.987Z,97994.22
2022-07-28T13:25:25.878Z,97991.75
2022-07-28T13:27:55.971Z,97990.72
2022-07-28T13:30:26.210Z,97987.53
2022-07-28T13:32:58.627Z,97983.81
2022-07-28T13:35:31.255Z,97988.41
2022-07-28T13:38:00.965Z,97977.69
2022-07-28T13:40:30.676Z,97977.69
2022-07-28T13:43:00.530Z,97978.72
2022-07-28T13:45:32.478Z,97971.78
2022-07-28T13:48:02.667Z,97975.59
2022-07-28T13:50:35.009Z,97973.25
2022-07-28T13:53:04.804Z,97966.84
2022-07-28T13:55:34.562Z,97970.25
2022-07-28T13:58:08.689Z,97964.31
2022-07-28T14:00:38.769Z,97961.13
2022-07-28T14:03:08.659Z,97957.25
2022-07-28T14:05:43.965Z,97960.13
2022-07-28T14:08:18.814Z,97958.75
2022-07-28T14:10:48.861Z,97959.53
2022-07-28T14:13:18.780Z,97951.28
2022-07-28T14:15:49.548Z,97954.31
2022-07-28T14:18:19.410Z,97951.75
2022-07-28T14:20:57.410Z,97939.75
2022-07-28T14:23:28.411Z,97937.34
2022-07-28T14:26:25.435Z,97932.63
2022-07-28T14:28:49.064Z,97927.75
2022-07-28T14:31:19.038Z,97934.91
2022-07-28T14:33:54.250Z,97927.47
2022-07-28T14:36:27.169Z,97920.06
2022-07-28T14:38:57.103Z,97918.03
2022-07-28T14:41:26.975Z,97924.69
2022-07-28T14:43:57.712Z,97909.66
2022-07-28T14:46:29.688Z,97912.44
2022-07-28T14:48:59.810Z,97914.03
2022-07-28T14:51:32.238Z,97902.81
2022-07-28T14:54:04.806Z,97908.44
2022-07-28T14:56:34.587Z,97911.53
2022-07-28T14:59:04.387Z,97906.94
2022-07-28T15:01:35.735Z,97905.31
2022-07-28T15:04:06.306Z,97903.78
2022-07-28T15:06:38.717Z,97910.03
2022-07-28T15:09:09.589Z,97915.88
2022-07-28T15:11:41.306Z,97914.06
2022-07-28T15:14:11.478Z,97912.56
2022-07-28T15:16:41.449Z,97912.59
2022-07-28T15:19:11.673Z,97914.91
2022-07-28T15:21:45.928Z,97912.38
2022-07-28T15:24:16.681Z,97909.28
2022-07-28T15:26:46.839Z,97905.19
2022-07-28T15:29:16.548Z,97896.47
2022-07-28T15:31:47.405Z,97897.75
2022-07-28T15:34:18.239Z,97891.31
2022-07-28T15:36:51.239Z,97888.25
2022-07-28T15:39:21.705Z,97886.44
2022-07-28T15:41:51.947Z,97891.56
2022-07-28T15:44:25.893Z,97893.53
2022-07-28T15:46:56.339Z,97888.41
2022-07-28T15:49:27.584Z,97882.06
2022-07-28T15:52:01.032Z,97885.47
2022-07-28T15:54:30.883Z,97884.94
2022-07-28T15:57:00.717Z,97875.19
2022-07-28T15:59:49.623Z,97877.78
2022-07-28T16:02:20.430Z,97873.84
2022-07-28T16:04:53.218Z,97869.50
2022-07-28T16:07:31.249Z,97867.44
2022-07-28T16:10:00.973Z,97867.94
2022-07-28T16:12:30.694Z,97863.81
2022-07-28T16:15:00.534Z,97865.56
2022-07-28T16:17:30.251Z,97870.94
2022-07-28T16:20:02.476Z,97861.09
2022-07-28T16:22:37.697Z,97858.28
2022-07-28T16:25:09.436Z,97863.91
2022-07-28T16:27:39.214Z,97859.81
2022-07-28T16:30:11.334Z,97859.56
2022-07-28T16:32:42.286Z,97858.03
2022-07-28T16:35:13.421Z,97854.44
2022-07-28T16:37:45.961Z,97848.81
2022-07-28T16:40:15.987Z,97846.47
2022-07-28T16:42:45.769Z,97846.69
2022-07-28T16:45:15.530Z,97848.22
2022-07-28T16:47:45.393Z,97850.53
2022-07-28T16:50:19.160Z,97854.06
2022-07-28T16:52:51.506Z,97849.47
2022-07-28T16:55:23.710Z,97851.44
2022-07-28T16:57:53.919Z,97850.69
2022-07-28T17:00:25.829Z,97844.59
2022-07-28T17:02:55.689Z,97838.94
2022-07-28T17:05:25.871Z,97842.50
2022-07-28T17:07:58.480Z,97845.31
2022-07-28T17:10:28.476Z,97838.09
2022-07-28T17:12:58.732Z,97833.16
2022-07-28T17:15:28.735Z,97831.91
2022-07-28T17:17:58.580Z,97843.09
2022-07-28T17:20:28.401Z,97841.31
2022-07-28T17:23:00.825Z,97847.16
2022-07-28T17:28:20.235Z,97850.13
2022-07-28T17:30:50.012Z,97858.28
2022-07-28T17:33:19.750Z,97856.50
2022-07-28T17:35:49.445Z,97871.81
2022-07-28T17:38:28.176Z,97872.78
2022-07-28T17:41:04.033Z,97872.53
2022-07-28T17:43:34.106Z,97872.28
2022-07-28T17:46:08.379Z,97873.94
2022-07-28T17:48:40.564Z,97874.88
2022-07-28T17:51:10.339Z,97888.84
2022-07-28T17:53:43.730Z,97878.31
2022-07-28T17:56:15.512Z,97886.94
2022-07-28T17:58:45.734Z,97885.41
2022-07-28T18:01:17.680Z,97888.66
2022-07-28T18:03:59.044Z,97879.34
2022-07-28T18:06:32.577Z,97880.28
2022-07-28T18:09:07.868Z,97876.09
2022-07-28T18:11:56.835Z,97873.47
2022-07-28T18:14:29.314Z,97869.84
2022-07-28T18:16:59.501Z,97881.56
2022-07-28T18:19:29.629Z,97885.63
2022-07-28T18:21:59.683Z,97885.22
2022-07-28T18:24:32.147Z,97877.34
2022-07-28T18:27:02.041Z,97879.03
2022-07-28T18:29:38.547Z,97880.25
2022-07-28T18:32:10.643Z,97884.03
2022-07-28T18:34:41.399Z,97873.81
2022-07-28T18:37:11.130Z,97871.25
2022-07-28T18:39:43.540Z,97875.72
2022-07-28T18:42:13.409Z,97885.28
2022-07-28T18:44:43.136Z,97881.44
2022-07-28T18:47:13.636Z,97878.63
2022-07-28T18:49:43.481Z,97881.34
2022-07-28T18:52:13.241Z,97878.69
2022-07-28T18:54:45.593Z,97884.22
2022-07-28T18:57:15.357Z,97878.41
2022-07-28T18:59:50.191Z,97884.69
2022-07-28T19:02:22.139Z,97877.91
2022-07-28T19:04:56.096Z,97878.31
2022-07-28T19:07:25.944Z,97872.44
2022-07-28T19:09:58.857Z,97879.00
2022-07-28T19:12:31.262Z,97887.81
2022-07-28T19:15:01.329Z,97900.25
2022-07-28T19:17:31.397Z,97902.28
2022-07-28T19:20:01.299Z,97908.06
2022-07-28T19:22:30.991Z,97911.91
2022-07-28T19:25:03.520Z,97917.25
2022-07-28T19:27:34.347Z,97916.75
2022-07-28T19:30:04.015Z,97923.53
2022-07-28T19:32:33.738Z,97915.59
2022-07-28T19:35:04.043Z,97923.78
2022-07-28T19:37:33.706Z,97915.22
2022-07-28T19:40:06.416Z,97922.56
2022-07-28T19:42:36.630Z,97929.13
2022-07-28T19:45:07.077Z,97930.06
2022-07-28T19:47:37.233Z,97935.66
2022-07-28T19:50:08.255Z,97938.06
2022-07-28T19:52:37.931Z,97937.88
2022-07-28T19:55:12.798Z,97947.13
2022-07-28T19:57:48.049Z,97959.09
2022-07-28T20:00:19.331Z,97967.00
2022-07-28T20:02:49.128Z,97979.47
2022-07-28T20:05:19.154Z,97977.59
2022-07-28T20:07:48.875Z,97981.59
2022-07-28T20:10:22.199Z,97994.63
2022-07-28T20:12:52.010Z,98014.97
2022-07-28T20:15:22.238Z,98035.69
2022-07-28T20:17:52.142Z,98041.56
2022-07-28T20:20:22.143Z,98039.22
2022-07-28T20:22:51.830Z,98041.47
2022-07-28T20:25:24.121Z,98042.78
2022-07-28T20:27:54.265Z,98053.00
2022-07-28T20:30:24.080Z,98054.44
2022-07-28T20:32:54.015Z,98065.31
2022-07-28T20:35:23.677Z,98082.03
2022-07-28T20:37:53.316Z,98084.19
2022-07-28T20:40:25.899Z,98092.81
2022-07-28T20:42:56.425Z,98105.19
2022-07-28T20:45:26.540Z,98121.75
2022-07-28T20:47:56.261Z,98128.69
2022-07-28T20:50:26.161Z,98146.66
2022-07-28T20:52:55.840Z,98153.75
2022-07-28T20:55:28.313Z,98147.75
2022-07-28T20:57:58.505Z,98151.13
2022-07-28T21:00:28.363Z,98160.59
2022-07-28T21:02:58.108Z,98165.66
2022-07-28T21:05:35.858Z,98175.84
2022-07-28T21:08:09.485Z,98169.09
2022-07-28T21:10:49.094Z,98156.59
2022-07-28T21:13:18.817Z,98168.25
2022-07-28T21:15:48.423Z,98162.72
2022-07-28T21:18:18.323Z,98170.50
2022-07-28T21:20:47.981Z,98161.31
2022-07-28T21:23:18.941Z,98160.59
2022-07-28T21:25:51.533Z,98147.13
2022-07-28T21:28:33.762Z,98155.88
2022-07-28T21:31:03.420Z,98153.94
2022-07-28T21:33:33.164Z,98149.00
2022-07-28T21:36:03.064Z,98138.34
2022-07-28T21:38:32.749Z,98136.59
2022-07-28T21:41:05.106Z,98136.59
2022-07-28T21:43:34.860Z,98142.63
2022-07-28T21:46:04.891Z,98138.41
2022-07-28T21:48:34.820Z,98148.56
2022-07-28T21:51:04.502Z,98145.97
2022-07-28T21:53:47.856Z,98151.94
2022-07-28T21:56:20.666Z,98167.03
2022-07-28T21:58:51.169Z,98168.63
2022-07-28T22:01:21.065Z,98169.41
2022-07-28T22:03:50.931Z,98177.66
2022-07-28T22:06:22.024Z,98176.34
2022-07-28T22:08:54.065Z,98166.53
2022-07-28T22:11:26.733Z,98160.22
2022-07-28T22:13:56.460Z,98162.78
2022-07-28T22:16:26.288Z,98162.09
2022-07-28T22:18:56.067Z,98154.09
2022-07-28T22:21:25.727Z,98172.31
2022-07-28T22:23:55.386Z,98166.19
2022-07-28T22:26:27.674Z,98167.66
2022-07-28T22:28:57.355Z,98161.56
2022-07-28T22:31:27.025Z,98163.91
2022-07-28T22:33:56.731Z,98168.78
2022-07-28T22:36:26.414Z,98162.03
2022-07-28T22:38:56.789Z,98159.81
2022-07-28T22:41:29.165Z,98149.13
2022-07-28T22:43:59.290Z,98151.34
2022-07-28T22:46:29.013Z,98156.13
2022-07-28T22:48:58.871Z,98164.91
2022-07-28T22:51:28.868Z,98168.22
2022-07-28T22:54:00.632Z,98175.47
2022-07-28T22:56:35.010Z,98184.13
2022-07-28T22:59:08.001Z,98180.34
2022-07-28T23:01:37.856Z,98173.91
2022-07-28T23:04:09.259Z,98167.53
2022-07-28T23:06:39.063Z,98165.91
2022-07-28T23:09:09.141Z,98154.72
2022-07-28T23:11:41.582Z,98154.03
2022-07-28T23:14:25.921Z,98149.34
2022-07-28T23:16:55.646Z,98145.56
2022-07-28T23:19:25.370Z,98147.09
2022-07-28T23:21:55.271Z,98142.44
2022-07-28T23:24:25.412Z,98141.31
2022-07-28T23:26:57.727Z,98139.00
2022-07-28T23:29:27.456Z,98140.13
2022-07-28T23:31:57.242Z,98137.75
2022-07-28T23:34:27.036Z,98136.75
2022-07-28T23:36:56.790Z,98142.97
2022-07-28T23:39:26.576Z,98146.09
2022-07-28T23:41:59.089Z,98154.97
2022-07-28T23:44:28.863Z,98145.97
2022-07-28T23:46:58.666Z,98153.19
2022-07-28T23:49:28.622Z,98140.19
2022-07-28T23:51:58.427Z,98147.97
2022-07-28T23:54:28.174Z,98139.63
2022-07-28T23:57:00.620Z,98142.63
2022-07-28T23:59:30.358Z,98137.84
